Overview Statistics Trail Chart Weather Telemetry Raw packets
 

This is the latest recevied weather packets stored in our database for station/object SV9TNF-55. If no packets are shown the sender has not sent any weather packets the latest 10 day(s).

<< 43 44 45 46 47 48 49 >>
Time Temp. Humidity Pressure Rain* Wind** Luminosity Snow
1787996200 22.22° C 60% 1015.1 hPa 0 mm 4.47 m/s, 292° - -
1787995600 21.67° C 62% 1015.2 hPa 0 mm 3.13 m/s, 292° - -
1787995000 21.67° C 62% 1015.3 hPa 0 mm 3.13 m/s, 292° - -
1787994399 21.67° C 62% 1015.8 hPa 0 mm 2.68 m/s, 270° - -
1787993800 21.11° C 61% 1015.8 hPa 0 mm 1.79 m/s, 45° - -
1787993203 21.11° C 62% 1015.9 hPa 0 mm 3.13 m/s, 337° - -
1787992599 21.11° C 61% 1016 hPa 0 mm 3.13 m/s, 292° - -
1787992000 21.67° C 63% 1015.6 hPa 0 mm 3.13 m/s, 292° - -
1787991399 21.11° C 64% 1015.1 hPa 0 mm 4.47 m/s, 292° - -
1787990799 24.44° C 57% 1013.5 hPa 0 mm 0.89 m/s, 337° - -
1787990199 20.56° C 64% 1015.1 hPa 0 mm 2.68 m/s, 315° - -
1787989600 20° C 63% 1015 hPa 0 mm 5.36 m/s, 337° - -
1787989000 20° C 62% 1015.1 hPa 0 mm 4.92 m/s, 292° - -
1787988399 20.56° C 62% 1015 hPa 0 mm 4.02 m/s, 292° - -
1787987799 20.56° C 62% 1014.8 hPa 0 mm 2.24 m/s, 337° - -
1787987199 20° C 63% 1014.8 hPa 0 mm 3.13 m/s, 292° - -
1787986599 20° C 63% 1014.8 hPa 0 mm 3.13 m/s, 292° - -
1787985998 20° C 62% 1014.7 hPa 0 mm 3.58 m/s, 292° - -
1787985399 20° C 64% 1014.6 hPa 0 mm 2.24 m/s, 292° - -
1787984798 20° C 63% 1014.5 hPa 0 mm 2.68 m/s, 292° - -
1787984198 20° C 64% 1014.5 hPa 0 mm 1.79 m/s, 270° - -
1787983597 19.44° C 64% 1014.5 hPa 0 mm 2.24 m/s, 292° - -
1787982997 19.44° C 65% 1014.3 hPa 0 mm 2.24 m/s, 292° - -
1787982397 18.89° C 67% 1014.1 hPa 0 mm 0.89 m/s, 292° - -
1787981798 18.89° C 67% 1014 hPa 0 mm 1.79 m/s, 270° - -

* Rain latest hour (hover to see other rain measurements)
** Current wind speed in m/s (hover to see current wind gust speed)